aviador You're here:

MROC Decoded Metar

SAN JOSE in COSTA RICA
Report Time2017-10-22 17:00:00
UTC Time2017-10-22 17:25:31
Flight Rules vfr VFR
Wind240° at 05 kt
W.Decomp.*RWY 25: 4.9 kt HW 0.9 kt LCW
W.Rank240° ranks 7
Current wind is below 240° avg. (7.8)
Visibility9999 m
Phenomena:N/A
Clouds:Few 015 Hf
Broken 180 Hf
Expected CloudBase > 1,200 ft AGL from Temp-Dew spread
Ceiling18,000 ft
Temp24°C (ISA +15)
Dew Point21°C (83% RH)
QNH1016 hPa
Density Alt4,990 ft
Elevation3,018 ft
Report Wrong Elevation
Raw Report
MROC 221700Z 24005KT 190V280 9999 FEW015 BKN180 24/21 A3001
NOSIG=

Extra information for MROC:More info

Metar Taf Metar & Taf Last 4 Metars F.Rules Stats Wind Profile Meteogram Temp Stats Airport Information Weather charts Add Link Nearby VenuesMetar ALERT Operation Metar Decoded Social comments